Time;durP1;ratioP1;P1;durP2;ratioP2;P2;SDS_P1;SDS_P2;PMS_P1;PMS_P2;Temp;Humidity;BMP_temperature;BMP_pressure;BME280_temperature;BME280_humidity;BME280_pressure;Samples;Min_cycle;Max_cycle;Signal;HPM_P1;HPM_P2
2022/09/08 00:00:00;;;;;;;0.80;0.80;;;24.50;65.20;;;;;;4989120;28;43363;-71
2022/09/08 00:02:28;;;;;;;0.70;0.70;;;24.50;65.10;;;;;;5006397;28;43594;-73
2022/09/08 00:04:58;;;;;;;0.60;0.60;;;24.50;65.20;;;;;;5013477;28;43923;-73
2022/09/08 00:07:26;;;;;;;0.70;0.70;;;24.40;65.30;;;;;;5006575;28;44104;-76
2022/09/08 00:09:54;;;;;;;0.80;0.80;;;24.40;65.80;;;;;;5006819;28;43441;-72
2022/09/08 00:12:22;;;;;;;0.90;0.90;;;24.30;65.80;;;;;;5011344;28;43539;-71
2022/09/08 00:14:51;;;;;;;0.70;0.70;;;24.30;65.60;;;;;;5012711;28;43750;-71
2022/09/08 00:17:19;;;;;;;0.70;0.70;;;24.30;65.60;;;;;;4989065;28;44990;-70
2022/09/08 00:19:47;;;;;;;0.83;0.83;;;24.20;66.20;;;;;;5006719;28;43360;-72
2022/09/08 00:22:16;;;;;;;0.73;0.73;;;24.20;66.20;;;;;;4988340;28;43635;-70
2022/09/08 00:24:44;;;;;;;0.70;0.70;;;24.30;66.00;;;;;;5006590;28;43927;-71
2022/09/08 00:27:12;;;;;;;0.80;0.80;;;24.40;65.50;;;;;;5006200;28;43298;-72
2022/09/08 00:29:40;;;;;;;0.80;0.80;;;24.50;65.30;;;;;;5006809;28;43422;-72
2022/09/08 00:32:08;;;;;;;0.80;0.80;;;24.50;65.30;;;;;;5025461;28;43417;-72
2022/09/08 00:34:36;;;;;;;0.63;0.63;;;24.40;65.20;;;;;;5014236;28;43922;-71
2022/09/08 00:37:04;;;;;;;0.80;0.80;;;24.40;65.30;;;;;;5017719;28;43357;-71
2022/09/08 00:39:33;;;;;;;0.60;0.60;;;24.30;65.90;;;;;;5007641;28;43927;-71
2022/09/08 00:42:01;;;;;;;0.80;0.80;;;24.30;66.00;;;;;;5006796;28;43417;-71
2022/09/08 00:44:38;;;;;;;0.70;0.70;;;24.20;65.80;;;;;;4988215;28;45998;-70
2022/09/08 00:47:11;;;;;;;0.60;0.60;;;24.20;65.80;;;;;;5025137;28;43420;-73
2022/09/08 00:49:39;;;;;;;0.73;0.73;;;24.20;66.40;;;;;;5000172;28;43421;-72
2022/09/08 00:52:06;;;;;;;0.70;0.70;;;24.10;66.40;;;;;;4988613;28;43599;-71
2022/09/08 00:54:36;;;;;;;0.60;0.60;;;24.10;66.20;;;;;;5017757;28;45843;-72
2022/09/08 00:57:05;;;;;;;5.53;0.80;;;24.10;66.00;;;;;;5007538;28;43958;-72
2022/09/08 00:59:34;;;;;;;0.77;0.77;;;24.10;66.70;;;;;;5025245;28;43305;-71
2022/09/08 01:02:02;;;;;;;1.80;1.20;;;24.10;66.50;;;;;;5012876;28;43508;-71
2022/09/08 01:04:30;;;;;;;0.87;0.80;;;24.20;66.10;;;;;;5006366;28;45302;-72
2022/09/08 01:12:44;;;;;;;1.57;0.63;;;24.50;65.40;;;;;;5019478;28;43449;-72
2022/09/08 01:15:15;;;;;;;0.70;0.70;;;24.40;65.30;;;;;;4999886;28;43935;-72
2022/09/08 01:17:43;;;;;;;0.73;0.73;;;24.40;65.70;;;;;;5013884;28;43377;-73
2022/09/08 01:20:11;;;;;;;0.77;0.77;;;24.30;65.80;;;;;;5013004;28;43855;-75
2022/09/08 01:23:17;;;;;;;0.70;0.70;;;24.30;66.00;;;;;;5024972;28;43831;-72
2022/09/08 01:26:01;;;;;;;1.13;0.63;;;24.20;65.70;;;;;;4985854;28;44050;-72
2022/09/08 01:28:31;;;;;;;2.03;0.80;;;24.20;66.10;;;;;;5013984;28;43549;-72
2022/09/08 01:30:59;;;;;;;0.73;0.73;;;24.20;66.30;;;;;;5009254;28;43672;-70
2022/09/08 01:33:29;;;;;;;0.53;0.53;;;24.20;66.00;;;;;;5009573;28;43700;-73
2022/09/08 01:35:57;;;;;;;0.80;0.80;;;24.40;65.70;;;;;;5009459;28;43869;-72
2022/09/08 01:38:25;;;;;;;0.60;0.60;;;24.40;65.30;;;;;;5009376;28;43377;-72
2022/09/08 01:40:53;;;;;;;0.80;0.80;;;24.40;65.20;;;;;;5010046;28;43416;-71
2022/09/08 01:43:21;;;;;;;0.80;0.80;;;24.40;65.20;;;;;;5009346;28;43519;-72
2022/09/08 01:45:50;;;;;;;0.70;0.70;;;24.40;65.40;;;;;;5009529;28;43949;-73
2022/09/08 01:48:18;;;;;;;0.60;0.60;;;24.30;65.90;;;;;;5017652;28;43445;-71
2022/09/08 01:50:46;;;;;;;0.70;0.70;;;24.30;66.00;;;;;;5021907;28;43434;-72
2022/09/08 01:53:14;;;;;;;0.70;0.70;;;24.20;65.90;;;;;;5019308;28;43388;-70
2022/09/08 01:55:43;;;;;;;0.77;0.77;;;24.20;65.80;;;;;;5008993;28;43779;-72
2022/09/08 01:58:11;;;;;;;0.80;0.80;;;24.10;66.30;;;;;;4990698;28;43424;-71
2022/09/08 02:00:40;;;;;;;0.70;0.70;;;24.10;66.40;;;;;;5024586;28;43823;-72
2022/09/08 02:03:10;;;;;;;0.70;0.70;;;24.10;66.30;;;;;;5009688;28;43766;-71
2022/09/08 02:05:38;;;;;;;0.60;0.60;;;24.10;66.10;;;;;;5027474;28;43860;-71
2022/09/08 02:08:06;;;;;;;0.60;0.60;;;24.10;66.20;;;;;;5018892;28;43309;-72
2022/09/08 02:10:34;;;;;;;0.80;0.80;;;24.00;66.60;;;;;;5000122;28;43410;-72
2022/09/08 02:13:03;;;;;;;0.80;0.80;;;24.10;66.50;;;;;;5025292;28;44050;-71
2022/09/08 02:15:31;;;;;;;0.80;0.80;;;24.20;66.10;;;;;;5008197;28;44073;-71
2022/09/08 02:17:59;;;;;;;0.70;0.70;;;24.30;65.60;;;;;;5017771;28;43405;-72
2022/09/08 02:20:28;;;;;;;0.60;0.60;;;24.40;65.40;;;;;;5020952;28;43408;-73
2022/09/08 02:22:56;;;;;;;0.53;0.53;;;24.40;65.30;;;;;;5018459;28;43962;-71
2022/09/08 02:25:24;;;;;;;0.60;0.60;;;24.40;65.40;;;;;;5007988;28;43655;-72
2022/09/08 02:27:53;;;;;;;0.90;0.90;;;24.30;65.70;;;;;;5008848;28;43457;-71
2022/09/08 02:30:22;;;;;;;0.70;0.70;;;24.30;65.80;;;;;;5010900;28;43381;-72
2022/09/08 02:32:50;;;;;;;0.60;0.60;;;24.30;65.90;;;;;;5027474;28;43505;-73
2022/09/08 02:35:18;;;;;;;0.70;0.70;;;24.20;65.70;;;;;;5023297;28;43919;-73
2022/09/08 02:37:47;;;;;;;0.77;0.77;;;24.10;65.90;;;;;;5021375;28;43373;-71
2022/09/08 02:40:15;;;;;;;0.60;0.60;;;24.10;66.40;;;;;;5011057;28;44027;-72
2022/09/08 02:42:44;;;;;;;0.67;0.67;;;24.10;66.30;;;;;;5006033;28;43550;-72
2022/09/08 02:45:12;;;;;;;0.70;0.70;;;24.10;66.10;;;;;;5008138;28;43928;-71
2022/09/08 02:47:43;;;;;;;0.77;0.77;;;24.10;66.10;;;;;;5008250;28;43746;-72
2022/09/08 02:50:11;;;;;;;0.70;0.70;;;24.00;66.60;;;;;;5007942;28;43747;-72
2022/09/08 02:52:39;;;;;;;0.50;0.50;;;24.00;66.50;;;;;;5008245;28;43407;-73
2022/09/08 02:55:09;;;;;;;0.73;0.73;;;24.00;66.40;;;;;;5024858;28;44000;-74
2022/09/08 02:57:37;;;;;;;0.80;0.80;;;24.00;66.10;;;;;;5016817;28;43863;-72
2022/09/08 03:00:07;;;;;;;0.60;0.60;;;24.00;66.70;;;;;;5024576;28;43858;-72
2022/09/08 03:02:34;;;;;;;0.67;0.67;;;24.00;66.50;;;;;;5027134;28;43411;-71
2022/09/08 03:05:03;;;;;;;0.67;0.67;;;24.10;66.10;;;;;;4998429;28;45369;-72
2022/09/08 03:07:31;;;;;;;0.70;0.70;;;24.30;65.90;;;;;;4989656;28;45039;-72
2022/09/08 03:09:59;;;;;;;0.90;0.90;;;24.40;65.40;;;;;;5014643;28;43377;-71
2022/09/08 03:12:28;;;;;;;0.70;0.70;;;24.40;65.10;;;;;;4989931;28;43668;-73
2022/09/08 03:14:56;;;;;;;0.60;0.60;;;24.40;65.10;;;;;;5007845;28;43944;-71
2022/09/08 03:17:24;;;;;;;0.70;0.70;;;24.40;65.20;;;;;;5012127;28;43460;-73
2022/09/08 03:19:54;;;;;;;0.70;0.70;;;24.30;65.40;;;;;;5026596;28;43337;-72
2022/09/08 03:22:22;;;;;;;0.70;0.70;;;24.30;65.70;;;;;;5020492;28;43374;-71
2022/09/08 03:24:50;;;;;;;0.70;0.70;;;24.20;65.60;;;;;;5027199;28;44051;-72
2022/09/08 03:27:17;;;;;;;0.80;0.77;;;24.20;65.60;;;;;;5024727;28;45110;-71
2022/09/08 03:29:47;;;;;;;0.60;0.60;;;24.10;66.00;;;;;;5020219;28;43451;-71
2022/09/08 03:32:15;;;;;;;0.70;0.70;;;24.10;65.90;;;;;;5026031;28;43592;-71
2022/09/08 03:34:43;;;;;;;0.60;0.60;;;24.20;65.90;;;;;;5008857;28;43922;-71
2022/09/08 03:37:10;;;;;;;0.70;0.70;;;24.30;65.40;;;;;;5006842;28;43474;-73
2022/09/08 03:39:39;;;;;;;0.60;0.60;;;24.40;65.10;;;;;;5018574;28;43407;-71
2022/09/08 03:42:07;;;;;;;0.80;0.80;;;24.40;65.10;;;;;;5015343;28;43801;-73
2022/09/08 03:44:35;;;;;;;0.70;0.70;;;24.40;65.10;;;;;;5018806;28;43958;-72
2022/09/08 03:47:05;;;;;;;0.60;0.60;;;24.30;65.30;;;;;;5021079;28;43394;-73
2022/09/08 03:49:33;;;;;;;0.80;0.80;;;24.30;65.70;;;;;;5025079;28;43417;-72
2022/09/08 03:52:01;;;;;;;0.70;0.70;;;24.20;65.60;;;;;;4989782;28;44139;-72
2022/09/08 03:54:51;;;;;;;0.70;0.70;;;24.20;65.60;;;;;;4993776;28;45944;-71
2022/09/08 03:57:21;;;;;;;0.80;0.80;;;24.10;65.60;;;;;;5019309;28;43403;-71
2022/09/08 03:59:49;;;;;;;0.50;0.50;;;24.10;66.30;;;;;;5008693;28;43438;-71
2022/09/08 04:02:19;;;;;;;0.70;0.70;;;24.10;66.30;;;;;;5024062;28;43385;-73
2022/09/08 04:04:48;;;;;;;0.80;0.80;;;24.10;66.10;;;;;;5013526;28;43552;-70
2022/09/08 04:07:16;;;;;;;0.80;0.80;;;24.10;66.10;;;;;;4990807;28;43512;-72
2022/09/08 04:09:44;;;;;;;0.80;0.80;;;24.00;66.40;;;;;;5024169;28;43388;-73
2022/09/08 04:12:12;;;;;;;0.67;0.67;;;24.10;66.40;;;;;;5009609;28;43409;-73
2022/09/08 04:14:40;;;;;;;0.80;0.80;;;24.10;65.80;;;;;;5023355;28;43936;-71
2022/09/08 04:17:08;;;;;;;0.70;0.70;;;24.30;65.40;;;;;;5006724;28;43367;-73
2022/09/08 04:19:37;;;;;;;0.80;0.80;;;24.40;65.20;;;;;;4995672;28;43573;-72
2022/09/08 04:22:06;;;;;;;0.73;0.73;;;24.40;65.10;;;;;;5006794;28;43417;-71
2022/09/08 04:24:34;;;;;;;0.70;0.70;;;24.30;65.10;;;;;;5006216;28;43620;-72
2022/09/08 04:27:02;;;;;;;0.90;0.90;;;24.30;65.30;;;;;;4997510;28;44654;-72
2022/09/08 04:29:30;;;;;;;0.80;0.80;;;24.20;65.60;;;;;;5025303;28;43484;-70
2022/09/08 04:31:58;;;;;;;0.80;0.80;;;24.20;65.60;;;;;;5025563;28;43574;-72
2022/09/08 04:34:26;;;;;;;0.73;0.73;;;24.20;65.60;;;;;;5010462;28;43598;-72
2022/09/08 04:36:55;;;;;;;0.97;0.97;;;24.10;65.70;;;;;;4988799;28;44831;-72
2022/09/08 04:39:23;;;;;;;0.50;0.50;;;24.10;65.90;;;;;;5009071;28;43439;-71
2022/09/08 04:41:50;;;;;;;1.40;0.83;;;24.10;66.00;;;;;;4992962;28;43531;-72
2022/09/08 04:44:18;;;;;;;0.80;0.80;;;24.10;65.90;;;;;;4990238;28;45892;-71
2022/09/08 04:46:47;;;;;;;1.00;1.00;;;24.00;65.80;;;;;;4994815;28;44323;-73
2022/09/08 04:49:14;;;;;;;2.77;1.00;;;24.00;65.80;;;;;;5022890;28;43401;-72
2022/09/08 04:51:42;;;;;;;0.90;0.90;;;24.00;65.40;;;;;;5007090;28;43325;-71
2022/09/08 04:54:12;;;;;;;0.77;0.77;;;24.10;65.40;;;;;;5005730;28;43915;-72
2022/09/08 04:56:40;;;;;;;0.80;0.80;;;24.20;65.30;;;;;;5006118;28;43882;-72
2022/09/08 04:59:07;;;;;;;0.80;0.80;;;24.30;64.70;;;;;;5006376;28;43371;-74
2022/09/08 05:01:36;;;;;;;1.50;0.80;;;24.40;64.50;;;;;;5022088;28;43416;-71
2022/09/08 05:04:04;;;;;;;1.30;0.90;;;24.40;64.60;;;;;;5010870;28;43705;-72
2022/09/08 05:06:33;;;;;;;0.87;0.87;;;24.30;64.70;;;;;;5025064;28;43438;-70
2022/09/08 05:09:01;;;;;;;1.20;0.97;;;24.20;65.00;;;;;;5028948;28;43393;-72
2022/09/08 05:11:31;;;;;;;1.77;1.20;;;24.20;65.20;;;;;;5011227;28;43425;-72
2022/09/08 05:13:59;;;;;;;0.80;0.80;;;24.20;65.20;;;;;;4994799;28;45556;-72
2022/09/08 05:16:28;;;;;;;0.70;0.70;;;24.10;65.20;;;;;;5019516;28;43302;-71
2022/09/08 05:18:56;;;;;;;0.90;0.90;;;24.10;65.50;;;;;;5025159;28;43433;-71
2022/09/08 05:21:25;;;;;;;0.70;0.70;;;24.10;65.60;;;;;;5016225;28;43381;-72
2022/09/08 05:23:53;;;;;;;1.17;0.77;;;24.10;65.30;;;;;;5011550;28;43593;-72
2022/09/08 05:26:22;;;;;;;0.90;0.90;;;24.10;64.90;;;;;;5007929;28;44671;-71
2022/09/08 05:28:51;;;;;;;0.70;0.70;;;24.10;65.00;;;;;;4994650;28;43491;-73
2022/09/08 05:31:20;;;;;;;0.93;0.93;;;24.10;65.00;;;;;;5016342;28;43401;-73
2022/09/08 05:33:48;;;;;;;0.70;0.70;;;24.10;64.80;;;;;;4991595;28;45980;-72
2022/09/08 05:36:17;;;;;;;0.70;0.70;;;24.10;64.70;;;;;;4991753;28;44359;-70
2022/09/08 05:38:46;;;;;;;0.70;0.70;;;24.00;65.00;;;;;;5020246;28;43307;-72
2022/09/08 05:41:14;;;;;;;0.90;0.90;;;24.00;65.10;;;;;;5004490;28;43513;-71
2022/09/08 05:43:42;;;;;;;0.90;0.90;;;24.00;64.90;;;;;;5024072;28;43624;-72
2022/09/08 05:46:12;;;;;;;0.70;0.70;;;24.00;64.60;;;;;;5026240;28;43437;-72
2022/09/08 05:48:45;;;;;;;0.90;0.90;;;24.10;64.30;;;;;;4992451;28;43404;-71
2022/09/08 05:51:14;;;;;;;0.93;0.93;;;24.20;64.00;;;;;;5010007;28;43413;-73
2022/09/08 05:53:42;;;;;;;0.83;0.83;;;24.30;63.80;;;;;;5004347;28;44227;-71
2022/09/08 05:56:10;;;;;;;0.70;0.70;;;24.20;63.80;;;;;;5008813;28;43453;-73
2022/09/08 05:58:38;;;;;;;0.73;0.73;;;24.20;64.20;;;;;;5009300;28;43496;-71
2022/09/08 06:01:07;;;;;;;0.70;0.70;;;24.10;64.00;;;;;;5009918;28;43416;-72
2022/09/08 06:03:36;;;;;;;0.97;0.80;;;24.10;64.00;;;;;;5022738;28;43770;-72
2022/09/08 06:06:07;;;;;;;0.80;0.80;;;24.00;64.30;;;;;;5015183;28;43337;-72
2022/09/08 06:08:35;;;;;;;0.80;0.80;;;24.00;64.50;;;;;;5022709;28;43500;-72
2022/09/08 06:11:03;;;;;;;0.80;0.80;;;24.00;64.50;;;;;;5009310;28;43989;-70
2022/09/08 06:13:31;;;;;;;0.83;0.83;;;23.90;64.30;;;;;;5027887;28;43845;-72
2022/09/08 06:16:02;;;;;;;0.70;0.70;;;23.90;64.40;;;;;;5027627;28;43692;-71
2022/09/08 06:18:32;;;;;;;0.80;0.77;;;23.90;64.60;;;;;;5000823;28;43414;-72
2022/09/08 06:21:04;;;;;;;0.80;0.80;;;23.90;64.70;;;;;;5015812;28;43345;-71
2022/09/08 06:23:32;;;;;;;1.00;1.00;;;23.90;64.40;;;;;;4998211;28;45788;-72
2022/09/08 06:26:11;;;;;;;0.80;0.80;;;23.90;64.20;;;;;;5009579;28;44050;-73
2022/09/08 06:28:41;;;;;;;0.80;0.80;;;24.00;64.00;;;;;;5028124;28;43541;-71
2022/09/08 06:31:09;;;;;;;1.00;1.00;;;24.10;63.50;;;;;;5019421;28;43411;-73
2022/09/08 06:33:40;;;;;;;0.70;0.70;;;24.20;63.30;;;;;;5008817;28;43924;-72
2022/09/08 06:36:15;;;;;;;0.70;0.70;;;24.20;63.20;;;;;;4993572;28;44397;-73
2022/09/08 06:38:46;;;;;;;0.83;0.70;;;24.10;63.60;;;;;;5011391;28;43436;-73
2022/09/08 06:41:15;;;;;;;0.60;0.60;;;24.10;63.70;;;;;;5008855;28;43434;-72
2022/09/08 06:43:46;;;;;;;0.67;0.67;;;24.00;63.70;;;;;;4990886;28;45961;-72
2022/09/08 06:46:20;;;;;;;0.80;0.80;;;24.00;63.80;;;;;;5003601;28;44382;-71
2022/09/08 06:48:48;;;;;;;1.20;0.70;;;24.00;64.20;;;;;;5020432;28;43380;-72
2022/09/08 06:51:23;;;;;;;0.70;0.70;;;23.90;64.20;;;;;;5020882;28;43531;-71
2022/09/08 06:53:57;;;;;;;0.63;0.63;;;23.90;64.00;;;;;;5009743;28;45595;-71
2022/09/08 06:56:32;;;;;;;0.67;0.67;;;23.90;64.10;;;;;;5014338;28;43486;-71
2022/09/08 06:59:25;;;;;;;0.77;0.77;;;23.90;64.40;;;;;;4990147;28;43407;-71
2022/09/08 07:01:58;;;;;;;0.80;0.80;;;23.80;64.10;;;;;;5020425;28;43493;-72
2022/09/08 07:04:33;;;;;;;0.70;0.70;;;23.80;63.90;;;;;;5009379;28;46267;-72
2022/09/08 07:07:07;;;;;;;0.63;0.63;;;23.90;63.80;;;;;;5002212;28;43407;-71
2022/09/08 07:09:37;;;;;;;0.73;0.73;;;24.00;63.40;;;;;;5026847;28;44025;-72
2022/09/08 07:12:11;;;;;;;0.73;0.73;;;24.10;63.00;;;;;;5022663;28;43981;-71
2022/09/08 07:15:00;;;;;;;0.50;0.50;;;24.10;62.80;;;;;;5024999;28;43901;-70
2022/09/08 07:17:30;;;;;;;0.70;0.70;;;24.10;63.20;;;;;;5019233;28;43407;-72
2022/09/08 07:19:58;;;;;;;0.90;0.90;;;24.00;63.30;;;;;;4992007;28;43358;-73
2022/09/08 07:22:36;;;;;;;0.70;0.70;;;24.00;63.30;;;;;;5003672;28;43604;-72
2022/09/08 07:25:25;;;;;;;0.77;0.77;;;23.90;63.10;;;;;;5002092;28;43716;-71
2022/09/08 07:27:58;;;;;;;0.50;0.50;;;23.90;63.60;;;;;;5013557;28;43381;-72
2022/09/08 07:30:25;;;;;;;0.90;0.90;;;23.90;63.80;;;;;;5027280;28;43422;-71
2022/09/08 07:32:56;;;;;;;0.60;0.60;;;23.80;63.40;;;;;;5027658;28;43425;-71
2022/09/08 07:36:07;;;;;;;0.70;0.70;;;23.80;63.20;;;;;;5009119;28;45666;-72
2022/09/08 07:38:39;;;;;;;0.70;0.70;;;23.80;63.60;;;;;;5020454;28;43416;-73
2022/09/08 07:41:07;;;;;;;0.70;0.70;;;23.80;63.80;;;;;;5009008;28;43347;-71
2022/09/08 07:43:35;;;;;;;0.70;0.70;;;23.70;63.30;;;;;;5024143;28;43399;-72
2022/09/08 07:46:18;;;;;;;0.60;0.60;;;23.70;63.10;;;;;;5014238;28;43631;-72
2022/09/08 07:48:49;;;;;;;0.60;0.60;;;23.80;63.00;;;;;;5021706;28;43396;-73
2022/09/08 07:51:18;;;;;;;1.70;0.80;;;23.90;62.80;;;;;;5006954;28;43868;-72
2022/09/08 07:54:13;;;;;;;0.80;0.80;;;24.00;62.30;;;;;;5010563;28;43484;-72
2022/09/08 07:56:42;;;;;;;0.80;0.80;;;24.10;62.20;;;;;;5016393;28;43851;-73
2022/09/08 07:59:32;;;;;;;0.67;0.67;;;24.00;62.40;;;;;;5008452;28;43902;-74
2022/09/08 08:02:28;;;;;;;1.80;0.90;;;24.00;62.70;;;;;;5023292;28;43450;-71
2022/09/08 08:05:20;;;;;;;0.90;0.90;;;23.90;62.50;;;;;;5014051;28;43483;-70
2022/09/08 08:07:51;;;;;;;1.23;1.00;;;23.90;62.80;;;;;;5026590;28;43632;-71
2022/09/08 08:10:39;;;;;;;3.80;0.70;;;23.90;63.10;;;;;;5008382;28;44451;-71
2022/09/08 08:13:31;;;;;;;0.70;0.70;;;23.80;63.10;;;;;;5014159;28;43697;-71
2022/09/08 08:16:18;;;;;;;0.80;0.80;;;23.80;63.00;;;;;;5017278;28;43493;-71
2022/09/08 08:18:50;;;;;;;0.63;0.63;;;23.70;63.20;;;;;;4999091;28;45381;-71
2022/09/08 08:21:23;;;;;;;0.70;0.70;;;23.70;63.40;;;;;;5021746;28;43996;-73
2022/09/08 08:23:59;;;;;;;0.70;0.70;;;23.70;63.30;;;;;;5007596;28;43317;-72
2022/09/08 08:26:36;;;;;;;0.80;0.80;;;23.70;63.10;;;;;;5007810;28;43396;-71
2022/09/08 08:29:26;;;;;;;0.90;0.90;;;23.80;62.80;;;;;;5002149;28;45631;-71
2022/09/08 08:31:58;;;;;;;0.80;0.80;;;23.90;62.40;;;;;;4975801;28;44759;-71
2022/09/08 08:34:47;;;;;;;0.90;0.90;;;24.00;62.20;;;;;;5026374;28;43363;-72
2022/09/08 08:37:18;;;;;;;1.10;0.80;;;24.00;61.90;;;;;;5000885;28;43457;-72
2022/09/08 08:39:47;;;;;;;0.80;0.80;;;24.00;62.30;;;;;;5004523;28;43596;-72
2022/09/08 08:42:29;;;;;;;0.70;0.70;;;23.90;62.30;;;;;;5010573;28;43407;-71
2022/09/08 08:45:07;;;;;;;0.80;0.80;;;23.90;61.90;;;;;;5001644;28;43481;-71
2022/09/08 08:48:00;;;;;;;0.97;0.90;;;23.80;62.10;;;;;;5018252;28;43441;-71
2022/09/08 08:50:52;;;;;;;1.70;1.00;;;23.80;62.50;;;;;;4995239;28;45374;-71
2022/09/08 08:53:44;;;;;;;1.10;1.10;;;23.70;62.50;;;;;;4997977;28;43491;-72
2022/09/08 08:56:31;;;;;;;1.00;1.00;;;23.70;62.20;;;;;;5004835;28;43580;-73
2022/09/08 08:59:09;;;;;;;0.90;0.90;;;23.70;62.60;;;;;;4999595;28;43396;-72
2022/09/08 09:01:45;;;;;;;0.87;0.87;;;23.70;62.80;;;;;;4997746;28;43933;-73
2022/09/08 09:04:28;;;;;;;0.90;0.90;;;23.70;62.60;;;;;;4977900;28;44790;-72
2022/09/08 09:07:27;;;;;;;1.37;1.00;;;23.70;62.50;;;;;;4990759;28;43355;-71
2022/09/08 09:10:23;;;;;;;0.90;0.90;;;23.70;61.90;;;;;;4999086;28;43461;-72
2022/09/08 09:13:01;;;;;;;0.97;0.97;;;23.90;61.80;;;;;;5002295;28;43832;-72
2022/09/08 09:15:45;;;;;;;0.80;0.80;;;23.90;61.50;;;;;;5002433;28;44078;-71
2022/09/08 09:19:02;;;;;;;0.80;0.80;;;23.90;61.60;;;;;;4990454;28;43354;-72
2022/09/08 09:21:47;;;;;;;0.90;0.90;;;23.90;62.10;;;;;;4994562;28;43381;-72
2022/09/08 09:24:15;;;;;;;0.80;0.80;;;23.80;61.80;;;;;;5002218;28;43824;-72
2022/09/08 09:26:51;;;;;;;0.67;0.67;;;23.80;61.90;;;;;;4979320;28;44859;-72
2022/09/08 09:29:37;;;;;;;0.80;0.80;;;23.70;62.20;;;;;;4995109;28;43401;-71
2022/09/08 09:32:31;;;;;;;0.60;0.60;;;23.70;63.20;;;;;;4991211;28;43418;-71
2022/09/08 09:35:45;;;;;;;0.80;0.80;;;23.70;62.10;;;;;;4971914;28;46667;-71
2022/09/08 09:38:22;;;;;;;0.90;0.90;;;23.60;62.20;;;;;;5002022;28;43426;-71
2022/09/08 09:41:04;;;;;;;0.83;0.83;;;23.60;62.60;;;;;;4995877;28;43992;-72
2022/09/08 09:43:39;;;;;;;0.87;0.87;;;23.60;62.50;;;;;;4999086;28;43448;-71
2022/09/08 09:46:51;;;;;;;1.00;1.00;;;23.60;62.00;;;;;;4996673;28;43603;-72
2022/09/08 09:49:32;;;;;;;1.10;1.10;;;23.70;62.10;;;;;;4976419;28;43541;-70
2022/09/08 09:52:06;;;;;;;0.93;0.93;;;23.80;61.90;;;;;;4994344;28;43444;-72
2022/09/08 09:54:55;;;;;;;1.23;0.93;;;23.90;61.60;;;;;;4998423;28;43497;-73
2022/09/08 09:58:03;;;;;;;0.80;0.80;;;24.00;61.20;;;;;;4998019;28;44027;-72
2022/09/08 10:00:33;;;;;;;0.80;0.80;;;23.90;61.30;;;;;;4994735;28;43426;-72
2022/09/08 10:03:45;;;;;;;0.87;0.80;;;23.90;61.70;;;;;;4994755;28;43978;-72
2022/09/08 10:06:25;;;;;;;0.80;0.80;;;23.80;61.50;;;;;;4998120;28;43333;-70
2022/09/08 10:09:17;;;;;;;2.17;1.10;;;23.80;61.70;;;;;;4978495;28;45437;-71
2022/09/08 10:12:22;;;;;;;12.00;2.53;;;23.70;62.00;;;;;;4999354;28;44380;-70
2022/09/08 10:15:32;;;;;;;12.77;3.40;;;23.70;62.20;;;;;;4993286;28;44033;-74
2022/09/08 10:18:57;;;;;;;9.70;3.13;;;23.70;62.50;;;;;;4980157;28;43510;-74
2022/09/08 10:22:01;;;;;;;5.53;2.70;;;23.60;62.50;;;;;;4925155;28;44872;-72
2022/09/08 10:25:23;;;;;;;11.47;2.90;;;23.70;62.80;;;;;;4989522;28;43479;-73
2022/09/08 10:28:32;;;;;;;9.57;2.93;;;23.60;62.70;;;;;;4925502;28;43465;-72
2022/09/08 10:31:27;;;;;;;10.30;2.80;;;23.60;62.40;;;;;;4894929;28;43516;-73
2022/09/08 10:34:20;;;;;;;5.60;2.50;;;23.70;62.00;;;;;;4988646;28;43598;-72
2022/09/08 10:36:57;;;;;;;6.47;2.77;;;23.90;61.50;;;;;;4992129;28;43443;-71
2022/09/08 10:39:40;;;;;;;5.13;2.33;;;23.90;61.40;;;;;;4972731;28;43899;-71
2022/09/08 10:42:35;;;;;;;3.47;2.37;;;23.90;61.70;;;;;;4992519;28;43816;-73
2022/09/08 10:45:14;;;;;;;4.03;2.10;;;23.80;61.90;;;;;;4991786;28;44018;-70
2022/09/08 10:48:03;;;;;;;4.97;2.40;;;23.80;61.80;;;;;;4994141;28;43353;-71
2022/09/08 10:50:32;;;;;;;2.37;1.87;;;23.70;61.90;;;;;;5000315;28;43451;-71
2022/09/08 10:53:22;;;;;;;3.83;1.93;;;23.70;62.20;;;;;;5000200;28;43457;-72
2022/09/08 10:56:09;;;;;;;2.70;1.93;;;23.70;62.30;;;;;;4971495;28;45704;-75
2022/09/08 10:59:17;;;;;;;2.80;1.90;;;23.60;61.90;;;;;;4973070;28;43480;-71
2022/09/08 11:02:20;;;;;;;2.80;1.83;;;23.70;61.90;;;;;;4995005;28;44029;-72
2022/09/08 11:05:33;;;;;;;2.90;1.70;;;23.70;61.60;;;;;;4989036;28;43536;-71
2022/09/08 11:08:21;;;;;;;1.30;1.30;;;23.70;61.80;;;;;;4988463;28;43749;-70
2022/09/08 11:11:07;;;;;;;1.73;1.50;;;23.70;61.70;;;;;;4980112;28;43565;-71
2022/09/08 11:13:37;;;;;;;1.50;1.40;;;23.70;61.70;;;;;;4988696;28;43475;-70
2022/09/08 11:16:25;;;;;;;1.80;1.40;;;23.70;62.60;;;;;;4995177;28;43337;-71
2022/09/08 11:18:56;;;;;;;1.50;1.37;;;23.70;62.10;;;;;;4988514;28;43719;-71
2022/09/08 11:21:26;;;;;;;3.07;1.50;;;23.60;62.10;;;;;;4990768;28;43412;-72
2022/09/08 11:24:08;;;;;;;4.10;1.80;;;23.60;62.10;;;;;;4989291;28;44052;-71
2022/09/08 11:26:41;;;;;;;2.03;1.43;;;23.70;62.10;;;;;;4995428;28;43473;-72
2022/09/08 11:29:10;;;;;;;1.67;1.57;;;23.80;61.80;;;;;;4993417;28;44006;-73
2022/09/08 11:31:44;;;;;;;2.60;1.60;;;23.90;61.40;;;;;;4994700;28;43947;-71
2022/09/08 11:34:48;;;;;;;2.00;1.70;;;23.90;61.30;;;;;;4989338;28;43855;-71
2022/09/08 11:37:41;;;;;;;2.17;1.77;;;23.80;61.60;;;;;;4963387;28;43480;-70
2022/09/08 11:40:42;;;;;;;1.70;1.60;;;23.80;61.70;;;;;;4998151;28;43641;-73
2022/09/08 11:43:30;;;;;;;1.70;1.60;;;23.70;61.70;;;;;;4984230;28;43496;-70
2022/09/08 11:46:08;;;;;;;2.13;1.37;;;23.70;62.00;;;;;;4976845;28;43412;-72
2022/09/08 11:49:12;;;;;;;1.60;1.50;;;23.60;62.10;;;;;;4993117;28;43595;-71
2022/09/08 11:52:10;;;;;;;1.53;1.43;;;23.60;62.20;;;;;;4939883;28;44553;-72
2022/09/08 11:55:08;;;;;;;1.77;1.67;;;23.60;62.20;;;;;;4992361;28;43403;-72
2022/09/08 11:57:51;;;;;;;3.50;1.50;;;23.60;62.40;;;;;;4991838;28;43496;-70
2022/09/08 12:01:04;;;;;;;1.50;1.40;;;23.60;62.50;;;;;;4988407;28;43479;-71
2022/09/08 12:03:56;;;;;;;1.63;1.50;;;23.50;62.20;;;;;;4975341;28;43613;-75
2022/09/08 12:06:38;;;;;;;1.53;1.43;;;23.60;62.00;;;;;;4964231;28;44435;-71
2022/09/08 12:09:29;;;;;;;1.57;1.47;;;23.70;61.50;;;;;;4989090;28;43428;-71
2022/09/08 12:12:15;;;;;;;1.57;1.47;;;23.80;61.10;;;;;;4990811;28;43391;-70
2022/09/08 12:14:49;;;;;;;1.20;1.20;;;23.90;61.00;;;;;;4995445;28;43895;-70
2022/09/08 12:17:21;;;;;;;1.30;1.30;;;23.80;61.30;;;;;;4978032;28;44782;-70
2022/09/08 12:19:59;;;;;;;1.40;1.30;;;23.70;61.50;;;;;;4987370;28;44488;-72
2022/09/08 12:23:06;;;;;;;1.43;1.27;;;23.70;61.50;;;;;;4992779;28;43442;-72
2022/09/08 12:25:42;;;;;;;1.80;1.70;;;23.70;61.80;;;;;;4985255;28;43637;-71
2022/09/08 12:28:56;;;;;;;1.50;1.40;;;23.60;62.00;;;;;;4990341;28;43926;-71
2022/09/08 12:31:32;;;;;;;1.33;1.30;;;23.60;62.10;;;;;;4993526;28;43786;-72
2022/09/08 12:34:13;;;;;;;1.67;1.57;;;23.50;62.10;;;;;;5001763;28;44014;-73
2022/09/08 12:36:49;;;;;;;1.50;1.40;;;23.50;62.20;;;;;;4990900;28;43612;-70
2022/09/08 12:39:58;;;;;;;1.73;1.63;;;23.50;62.40;;;;;;4988009;28;43497;-71
2022/09/08 12:42:50;;;;;;;2.10;1.40;;;23.50;62.50;;;;;;4999153;28;43412;-71
2022/09/08 12:45:25;;;;;;;1.47;1.37;;;23.50;62.50;;;;;;4998210;28;43427;-71
2022/09/08 12:47:58;;;;;;;1.40;1.40;;;23.60;62.30;;;;;;4979066;28;45385;-72
2022/09/08 12:50:33;;;;;;;1.70;1.60;;;23.70;62.10;;;;;;4998178;28;44445;-71
2022/09/08 12:53:22;;;;;;;2.97;1.60;;;23.80;61.70;;;;;;4989159;28;44036;-71
2022/09/08 12:55:54;;;;;;;1.50;1.40;;;23.80;61.60;;;;;;4987845;28;43817;-71
2022/09/08 12:58:22;;;;;;;1.43;1.30;;;23.80;61.90;;;;;;4991638;28;43753;-71
2022/09/08 13:00:56;;;;;;;1.30;1.30;;;23.70;62.00;;;;;;4973991;28;44398;-71
2022/09/08 13:03:29;;;;;;;1.40;1.30;;;23.70;62.10;;;;;;4990301;28;43781;-73
2022/09/08 13:06:29;;;;;;;1.40;1.30;;;23.70;62.30;;;;;;4978079;28;44204;-71
2022/09/08 13:09:00;;;;;;;1.70;1.60;;;23.60;62.40;;;;;;4987184;28;43619;-73
2022/09/08 13:11:38;;;;;;;1.67;1.57;;;23.60;62.50;;;;;;4998824;28;43435;-72
2022/09/08 13:14:06;;;;;;;1.70;1.30;;;23.60;62.70;;;;;;4999724;28;44109;-72
2022/09/08 13:16:42;;;;;;;1.20;1.20;;;23.50;62.60;;;;;;4996986;28;43417;-75
2022/09/08 13:19:16;;;;;;;1.27;1.17;;;23.50;62.80;;;;;;4969827;28;45323;-71
2022/09/08 13:22:14;;;;;;;1.30;1.30;;;23.50;62.90;;;;;;4993679;28;43480;-72
2022/09/08 13:24:48;;;;;;;1.30;1.30;;;23.50;62.80;;;;;;4988636;28;43987;-71
2022/09/08 13:27:21;;;;;;;1.60;1.50;;;23.50;62.50;;;;;;4999946;28;43414;-70
2022/09/08 13:30:09;;;;;;;2.33;1.33;;;23.70;62.10;;;;;;4978769;28;45278;-71
2022/09/08 13:33:15;;;;;;;1.43;1.43;;;23.70;61.50;;;;;;5000616;28;43904;-70
2022/09/08 13:35:48;;;;;;;1.53;1.40;;;23.70;61.50;;;;;;4990270;28;43531;-71
2022/09/08 13:38:34;;;;;;;2.60;1.83;;;23.70;61.80;;;;;;4994183;28;43389;-74